Terminal Aerodrome Forecast
Issued by NWS

Home | Current Version | Previous Version | Text Only | Print | Product List | Glossary On
Versions: 1 2 3 4 5 6 7 8 9 10 11 12 13 14 15 16 17
000
FTUS46 KMTR 291120
TAFSJC
TAF
KSJC 291120Z 2912/3012 12010KT P6SM FEW015
     FM291700 VRB04KT P6SM FEW015
     FM292000 30012KT P6SM SCT200
     FM300400 30005KT P6SM SKC
     FM301000 14003KT P6SM BKN015=

USA.gov is the U.S. government's official web portal to all federal, state and local government web resources and services.